sensor_id;sensor_type;location;lat;lon;timestamp;P1;durP1;ratioP1;P2;durP2;ratioP2
66478;SDS011;53294;47.912;13.526;2024-01-30T00:02:02;1.63;;;1.15;;
66478;SDS011;53294;47.912;13.526;2024-01-30T00:04:29;3.50;;;1.88;;
66478;SDS011;53294;47.912;13.526;2024-01-30T00:06:56;2.13;;;1.13;;
66478;SDS011;53294;47.912;13.526;2024-01-30T00:09:23;0.82;;;0.65;;
66478;SDS011;53294;47.912;13.526;2024-01-30T00:11:49;1.83;;;1.15;;
66478;SDS011;53294;47.912;13.526;2024-01-30T00:14:17;3.85;;;1.90;;
66478;SDS011;53294;47.912;13.526;2024-01-30T00:16:44;4.32;;;1.60;;
66478;SDS011;53294;47.912;13.526;2024-01-30T00:19:11;3.42;;;0.98;;
66478;SDS011;53294;47.912;13.526;2024-01-30T00:21:38;4.20;;;1.85;;
66478;SDS011;53294;47.912;13.526;2024-01-30T00:24:04;2.72;;;1.48;;
66478;SDS011;53294;47.912;13.526;2024-01-30T00:26:31;6.03;;;1.58;;
66478;SDS011;53294;47.912;13.526;2024-01-30T00:28:58;1.35;;;1.00;;
66478;SDS011;53294;47.912;13.526;2024-01-30T00:31:25;4.40;;;2.13;;
66478;SDS011;53294;47.912;13.526;2024-01-30T00:33:52;2.67;;;1.90;;
66478;SDS011;53294;47.912;13.526;2024-01-30T00:36:19;2.90;;;1.17;;
66478;SDS011;53294;47.912;13.526;2024-01-30T00:38:45;4.10;;;1.50;;
66478;SDS011;53294;47.912;13.526;2024-01-30T00:41:12;3.85;;;1.40;;
66478;SDS011;53294;47.912;13.526;2024-01-30T00:43:39;2.78;;;1.50;;
66478;SDS011;53294;47.912;13.526;2024-01-30T00:46:05;2.85;;;1.80;;
66478;SDS011;53294;47.912;13.526;2024-01-30T00:48:32;3.28;;;1.85;;
66478;SDS011;53294;47.912;13.526;2024-01-30T00:50:59;6.68;;;2.38;;
66478;SDS011;53294;47.912;13.526;2024-01-30T00:53:26;7.32;;;2.35;;
66478;SDS011;53294;47.912;13.526;2024-01-30T00:55:52;12.98;;;2.70;;
66478;SDS011;53294;47.912;13.526;2024-01-30T00:58:19;3.08;;;2.60;;
66478;SDS011;53294;47.912;13.526;2024-01-30T01:00:46;3.53;;;1.90;;
66478;SDS011;53294;47.912;13.526;2024-01-30T01:03:13;4.15;;;1.90;;
66478;SDS011;53294;47.912;13.526;2024-01-30T01:05:40;7.07;;;3.47;;
66478;SDS011;53294;47.912;13.526;2024-01-30T01:08:07;9.90;;;3.53;;
66478;SDS011;53294;47.912;13.526;2024-01-30T01:10:33;8.57;;;2.63;;
66478;SDS011;53294;47.912;13.526;2024-01-30T01:13:00;4.22;;;2.92;;
66478;SDS011;53294;47.912;13.526;2024-01-30T01:15:27;4.18;;;2.65;;
66478;SDS011;53294;47.912;13.526;2024-01-30T01:17:55;6.97;;;2.50;;
66478;SDS011;53294;47.912;13.526;2024-01-30T01:20:22;4.70;;;2.55;;
66478;SDS011;53294;47.912;13.526;2024-01-30T01:22:49;7.82;;;3.10;;
66478;SDS011;53294;47.912;13.526;2024-01-30T01:25:16;9.38;;;3.25;;
66478;SDS011;53294;47.912;13.526;2024-01-30T01:27:43;8.82;;;2.70;;
66478;SDS011;53294;47.912;13.526;2024-01-30T01:30:11;4.40;;;2.65;;
66478;SDS011;53294;47.912;13.526;2024-01-30T01:32:40;9.48;;;4.53;;
66478;SDS011;53294;47.912;13.526;2024-01-30T01:35:15;7.40;;;2.80;;
66478;SDS011;53294;47.912;13.526;2024-01-30T01:37:42;2.85;;;2.47;;
66478;SDS011;53294;47.912;13.526;2024-01-30T01:40:09;6.68;;;2.70;;
66478;SDS011;53294;47.912;13.526;2024-01-30T01:42:36;5.40;;;2.72;;
66478;SDS011;53294;47.912;13.526;2024-01-30T01:45:02;6.80;;;3.08;;
66478;SDS011;53294;47.912;13.526;2024-01-30T01:47:29;2.50;;;1.70;;
66478;SDS011;53294;47.912;13.526;2024-01-30T01:49:56;5.43;;;2.53;;
66478;SDS011;53294;47.912;13.526;2024-01-30T01:52:23;4.72;;;2.55;;
66478;SDS011;53294;47.912;13.526;2024-01-30T01:54:50;4.13;;;2.58;;
66478;SDS011;53294;47.912;13.526;2024-01-30T01:57:17;3.50;;;2.30;;
66478;SDS011;53294;47.912;13.526;2024-01-30T01:59:44;10.98;;;3.65;;
66478;SDS011;53294;47.912;13.526;2024-01-30T02:02:10;2.33;;;1.77;;
66478;SDS011;53294;47.912;13.526;2024-01-30T02:04:39;8.75;;;2.90;;
66478;SDS011;53294;47.912;13.526;2024-01-30T02:07:06;3.10;;;2.33;;
66478;SDS011;53294;47.912;13.526;2024-01-30T02:09:33;2.42;;;1.30;;
66478;SDS011;53294;47.912;13.526;2024-01-30T02:11:59;2.53;;;2.10;;
66478;SDS011;53294;47.912;13.526;2024-01-30T02:14:26;6.13;;;2.42;;
66478;SDS011;53294;47.912;13.526;2024-01-30T02:16:56;6.40;;;2.92;;
66478;SDS011;53294;47.912;13.526;2024-01-30T02:19:23;3.53;;;2.47;;
66478;SDS011;53294;47.912;13.526;2024-01-30T02:21:50;6.63;;;3.00;;
66478;SDS011;53294;47.912;13.526;2024-01-30T02:24:17;4.10;;;2.70;;
66478;SDS011;53294;47.912;13.526;2024-01-30T02:26:44;4.68;;;3.58;;
66478;SDS011;53294;47.912;13.526;2024-01-30T02:29:10;3.25;;;1.65;;
66478;SDS011;53294;47.912;13.526;2024-01-30T02:31:37;3.83;;;2.22;;
66478;SDS011;53294;47.912;13.526;2024-01-30T02:34:04;6.55;;;2.08;;
66478;SDS011;53294;47.912;13.526;2024-01-30T02:36:30;4.90;;;3.05;;
66478;SDS011;53294;47.912;13.526;2024-01-30T02:38:57;4.05;;;1.98;;
66478;SDS011;53294;47.912;13.526;2024-01-30T02:41:24;6.80;;;2.50;;
66478;SDS011;53294;47.912;13.526;2024-01-30T02:43:51;6.47;;;2.63;;
66478;SDS011;53294;47.912;13.526;2024-01-30T02:46:17;4.38;;;2.40;;
66478;SDS011;53294;47.912;13.526;2024-01-30T02:48:44;4.75;;;2.38;;
66478;SDS011;53294;47.912;13.526;2024-01-30T02:51:11;18.02;;;3.15;;
66478;SDS011;53294;47.912;13.526;2024-01-30T02:53:38;4.25;;;1.35;;
66478;SDS011;53294;47.912;13.526;2024-01-30T02:56:04;8.45;;;2.80;;
66478;SDS011;53294;47.912;13.526;2024-01-30T02:58:32;7.28;;;2.47;;
66478;SDS011;53294;47.912;13.526;2024-01-30T03:00:58;3.70;;;1.55;;
66478;SDS011;53294;47.912;13.526;2024-01-30T03:03:26;3.72;;;1.55;;
66478;SDS011;53294;47.912;13.526;2024-01-30T03:05:52;7.90;;;1.88;;
66478;SDS011;53294;47.912;13.526;2024-01-30T03:08:19;3.42;;;1.88;;
66478;SDS011;53294;47.912;13.526;2024-01-30T03:13:13;6.70;;;2.13;;
66478;SDS011;53294;47.912;13.526;2024-01-30T03:15:40;4.63;;;3.13;;
66478;SDS011;53294;47.912;13.526;2024-01-30T03:18:07;7.85;;;3.10;;
66478;SDS011;53294;47.912;13.526;2024-01-30T03:20:34;4.82;;;2.00;;
66478;SDS011;53294;47.912;13.526;2024-01-30T03:23:00;6.47;;;2.85;;
66478;SDS011;53294;47.912;13.526;2024-01-30T03:25:27;9.93;;;3.65;;
66478;SDS011;53294;47.912;13.526;2024-01-30T03:27:54;8.60;;;3.35;;
66478;SDS011;53294;47.912;13.526;2024-01-30T03:30:20;8.57;;;2.85;;
66478;SDS011;53294;47.912;13.526;2024-01-30T03:32:47;3.15;;;2.10;;
66478;SDS011;53294;47.912;13.526;2024-01-30T03:35:14;5.13;;;2.03;;
66478;SDS011;53294;47.912;13.526;2024-01-30T03:37:41;11.50;;;3.72;;
66478;SDS011;53294;47.912;13.526;2024-01-30T03:40:08;5.32;;;1.67;;
66478;SDS011;53294;47.912;13.526;2024-01-30T03:42:35;3.67;;;1.90;;
66478;SDS011;53294;47.912;13.526;2024-01-30T03:45:02;4.05;;;2.72;;
66478;SDS011;53294;47.912;13.526;2024-01-30T03:47:29;5.70;;;3.25;;
66478;SDS011;53294;47.912;13.526;2024-01-30T03:49:55;3.85;;;1.58;;
66478;SDS011;53294;47.912;13.526;2024-01-30T03:52:22;4.32;;;2.17;;
66478;SDS011;53294;47.912;13.526;2024-01-30T03:54:49;5.88;;;2.75;;
66478;SDS011;53294;47.912;13.526;2024-01-30T03:57:16;5.35;;;2.17;;
66478;SDS011;53294;47.912;13.526;2024-01-30T03:59:43;4.47;;;1.50;;
66478;SDS011;53294;47.912;13.526;2024-01-30T04:02:10;4.93;;;2.45;;
66478;SDS011;53294;47.912;13.526;2024-01-30T04:04:38;4.30;;;2.20;;
66478;SDS011;53294;47.912;13.526;2024-01-30T04:07:05;3.60;;;1.80;;
66478;SDS011;53294;47.912;13.526;2024-01-30T04:09:32;5.00;;;1.92;;
66478;SDS011;53294;47.912;13.526;2024-01-30T04:11:58;2.20;;;1.25;;
66478;SDS011;53294;47.912;13.526;2024-01-30T04:14:25;5.78;;;2.22;;
66478;SDS011;53294;47.912;13.526;2024-01-30T04:16:52;3.35;;;1.75;;
66478;SDS011;53294;47.912;13.526;2024-01-30T04:19:19;5.00;;;1.90;;
66478;SDS011;53294;47.912;13.526;2024-01-30T04:21:46;6.32;;;2.35;;
66478;SDS011;53294;47.912;13.526;2024-01-30T04:24:12;4.40;;;2.60;;
66478;SDS011;53294;47.912;13.526;2024-01-30T04:26:39;5.72;;;2.63;;
66478;SDS011;53294;47.912;13.526;2024-01-30T04:29:06;4.90;;;1.75;;
66478;SDS011;53294;47.912;13.526;2024-01-30T04:31:32;5.18;;;1.77;;
66478;SDS011;53294;47.912;13.526;2024-01-30T04:33:59;4.72;;;1.63;;
66478;SDS011;53294;47.912;13.526;2024-01-30T04:36:26;6.95;;;2.55;;
66478;SDS011;53294;47.912;13.526;2024-01-30T04:38:53;4.95;;;2.80;;
66478;SDS011;53294;47.912;13.526;2024-01-30T04:41:20;2.88;;;1.73;;
66478;SDS011;53294;47.912;13.526;2024-01-30T04:43:46;11.77;;;2.28;;
66478;SDS011;53294;47.912;13.526;2024-01-30T04:46:13;7.35;;;2.05;;
66478;SDS011;53294;47.912;13.526;2024-01-30T04:48:40;5.70;;;2.83;;
66478;SDS011;53294;47.912;13.526;2024-01-30T04:51:06;3.38;;;2.25;;
66478;SDS011;53294;47.912;13.526;2024-01-30T04:53:33;2.97;;;2.25;;
66478;SDS011;53294;47.912;13.526;2024-01-30T04:56:00;2.22;;;2.03;;
66478;SDS011;53294;47.912;13.526;2024-01-30T04:58:26;3.25;;;2.08;;
66478;SDS011;53294;47.912;13.526;2024-01-30T05:00:53;4.82;;;2.47;;
66478;SDS011;53294;47.912;13.526;2024-01-30T05:03:20;4.50;;;2.33;;
66478;SDS011;53294;47.912;13.526;2024-01-30T05:05:49;3.30;;;2.28;;
66478;SDS011;53294;47.912;13.526;2024-01-30T05:08:16;13.32;;;2.30;;
66478;SDS011;53294;47.912;13.526;2024-01-30T05:10:42;4.65;;;2.78;;
66478;SDS011;53294;47.912;13.526;2024-01-30T05:13:09;8.02;;;3.00;;
66478;SDS011;53294;47.912;13.526;2024-01-30T05:15:36;9.88;;;3.42;;
66478;SDS011;53294;47.912;13.526;2024-01-30T05:18:03;9.68;;;3.63;;
66478;SDS011;53294;47.912;13.526;2024-01-30T05:20:30;6.72;;;3.38;;
66478;SDS011;53294;47.912;13.526;2024-01-30T05:22:57;3.58;;;2.20;;
66478;SDS011;53294;47.912;13.526;2024-01-30T05:25:23;5.20;;;2.95;;
66478;SDS011;53294;47.912;13.526;2024-01-30T05:27:50;5.75;;;2.60;;
66478;SDS011;53294;47.912;13.526;2024-01-30T05:30:17;1.33;;;1.23;;
66478;SDS011;53294;47.912;13.526;2024-01-30T05:32:44;6.38;;;2.63;;
66478;SDS011;53294;47.912;13.526;2024-01-30T05:35:11;3.38;;;2.05;;
66478;SDS011;53294;47.912;13.526;2024-01-30T05:37:37;7.68;;;3.15;;
66478;SDS011;53294;47.912;13.526;2024-01-30T05:40:04;9.93;;;4.07;;
66478;SDS011;53294;47.912;13.526;2024-01-30T05:42:31;11.68;;;3.08;;
66478;SDS011;53294;47.912;13.526;2024-01-30T05:44:58;7.57;;;3.83;;
66478;SDS011;53294;47.912;13.526;2024-01-30T05:47:25;6.40;;;2.45;;
66478;SDS011;53294;47.912;13.526;2024-01-30T05:49:51;7.90;;;2.58;;
66478;SDS011;53294;47.912;13.526;2024-01-30T05:52:18;5.78;;;2.75;;
66478;SDS011;53294;47.912;13.526;2024-01-30T05:54:45;6.18;;;3.08;;
66478;SDS011;53294;47.912;13.526;2024-01-30T05:57:12;5.40;;;3.17;;
66478;SDS011;53294;47.912;13.526;2024-01-30T05:59:39;10.45;;;3.17;;
66478;SDS011;53294;47.912;13.526;2024-01-30T06:02:07;7.90;;;2.25;;
66478;SDS011;53294;47.912;13.526;2024-01-30T06:04:34;2.58;;;1.77;;
66478;SDS011;53294;47.912;13.526;2024-01-30T06:07:01;7.28;;;2.33;;
66478;SDS011;53294;47.912;13.526;2024-01-30T06:09:28;6.57;;;2.78;;
66478;SDS011;53294;47.912;13.526;2024-01-30T06:11:55;3.35;;;2.45;;
66478;SDS011;53294;47.912;13.526;2024-01-30T06:14:22;1.98;;;1.58;;
66478;SDS011;53294;47.912;13.526;2024-01-30T06:16:48;3.92;;;1.80;;
66478;SDS011;53294;47.912;13.526;2024-01-30T06:19:15;9.88;;;2.60;;
66478;SDS011;53294;47.912;13.526;2024-01-30T06:21:42;3.97;;;2.08;;
66478;SDS011;53294;47.912;13.526;2024-01-30T06:24:09;6.20;;;1.98;;
66478;SDS011;53294;47.912;13.526;2024-01-30T06:26:35;5.55;;;2.47;;
66478;SDS011;53294;47.912;13.526;2024-01-30T06:29:02;4.03;;;3.08;;
66478;SDS011;53294;47.912;13.526;2024-01-30T06:31:29;6.70;;;2.30;;
66478;SDS011;53294;47.912;13.526;2024-01-30T06:33:56;7.90;;;3.03;;
66478;SDS011;53294;47.912;13.526;2024-01-30T06:36:22;5.15;;;2.08;;
66478;SDS011;53294;47.912;13.526;2024-01-30T06:38:49;4.03;;;1.85;;
66478;SDS011;53294;47.912;13.526;2024-01-30T06:41:16;2.17;;;1.33;;
66478;SDS011;53294;47.912;13.526;2024-01-30T06:43:43;3.38;;;1.88;;
66478;SDS011;53294;47.912;13.526;2024-01-30T06:46:11;3.70;;;2.47;;
66478;SDS011;53294;47.912;13.526;2024-01-30T06:48:39;4.55;;;2.15;;
66478;SDS011;53294;47.912;13.526;2024-01-30T06:51:07;9.05;;;2.53;;
66478;SDS011;53294;47.912;13.526;2024-01-30T06:53:33;1.85;;;1.35;;
66478;SDS011;53294;47.912;13.526;2024-01-30T06:56:00;3.95;;;1.77;;
66478;SDS011;53294;47.912;13.526;2024-01-30T06:58:27;3.38;;;1.83;;
66478;SDS011;53294;47.912;13.526;2024-01-30T07:00:54;4.05;;;2.17;;
66478;SDS011;53294;47.912;13.526;2024-01-30T07:03:21;9.15;;;3.20;;
66478;SDS011;53294;47.912;13.526;2024-01-30T07:05:48;8.00;;;2.40;;
66478;SDS011;53294;47.912;13.526;2024-01-30T07:08:15;6.95;;;3.08;;
66478;SDS011;53294;47.912;13.526;2024-01-30T07:10:44;3.97;;;2.28;;
66478;SDS011;53294;47.912;13.526;2024-01-30T07:13:11;4.75;;;2.72;;
66478;SDS011;53294;47.912;13.526;2024-01-30T07:15:38;4.82;;;2.58;;
66478;SDS011;53294;47.912;13.526;2024-01-30T07:18:05;6.72;;;2.90;;
66478;SDS011;53294;47.912;13.526;2024-01-30T07:20:32;7.82;;;3.10;;
66478;SDS011;53294;47.912;13.526;2024-01-30T07:22:59;2.45;;;2.10;;
66478;SDS011;53294;47.912;13.526;2024-01-30T07:25:25;9.73;;;3.35;;
66478;SDS011;53294;47.912;13.526;2024-01-30T07:27:56;6.35;;;3.28;;
66478;SDS011;53294;47.912;13.526;2024-01-30T07:32:50;3.63;;;2.05;;
66478;SDS011;53294;47.912;13.526;2024-01-30T07:35:17;5.43;;;2.47;;
66478;SDS011;53294;47.912;13.526;2024-01-30T07:37:44;8.88;;;3.05;;
66478;SDS011;53294;47.912;13.526;2024-01-30T07:40:11;7.28;;;2.30;;
66478;SDS011;53294;47.912;13.526;2024-01-30T07:42:37;8.13;;;3.28;;
66478;SDS011;53294;47.912;13.526;2024-01-30T07:45:04;6.13;;;3.35;;
66478;SDS011;53294;47.912;13.526;2024-01-30T07:47:31;2.15;;;1.63;;
66478;SDS011;53294;47.912;13.526;2024-01-30T07:49:59;4.30;;;2.90;;
66478;SDS011;53294;47.912;13.526;2024-01-30T07:52:26;6.35;;;2.35;;
66478;SDS011;53294;47.912;13.526;2024-01-30T07:54:52;4.25;;;2.63;;
66478;SDS011;53294;47.912;13.526;2024-01-30T07:57:19;4.93;;;2.13;;
66478;SDS011;53294;47.912;13.526;2024-01-30T07:59:46;3.70;;;2.05;;
66478;SDS011;53294;47.912;13.526;2024-01-30T08:02:13;8.57;;;2.83;;
66478;SDS011;53294;47.912;13.526;2024-01-30T08:04:40;3.55;;;2.53;;
66478;SDS011;53294;47.912;13.526;2024-01-30T08:07:07;3.85;;;1.83;;
66478;SDS011;53294;47.912;13.526;2024-01-30T08:09:34;7.47;;;2.78;;
66478;SDS011;53294;47.912;13.526;2024-01-30T08:12:00;6.35;;;2.67;;
66478;SDS011;53294;47.912;13.526;2024-01-30T08:14:27;9.05;;;3.08;;
66478;SDS011;53294;47.912;13.526;2024-01-30T08:16:54;10.73;;;4.10;;
66478;SDS011;53294;47.912;13.526;2024-01-30T08:19:21;6.07;;;2.40;;
66478;SDS011;53294;47.912;13.526;2024-01-30T08:21:48;5.57;;;3.30;;
66478;SDS011;53294;47.912;13.526;2024-01-30T08:24:15;5.07;;;2.72;;
66478;SDS011;53294;47.912;13.526;2024-01-30T08:26:42;6.68;;;3.35;;
66478;SDS011;53294;47.912;13.526;2024-01-30T08:29:09;7.47;;;3.58;;
66478;SDS011;53294;47.912;13.526;2024-01-30T08:31:36;10.30;;;5.03;;
66478;SDS011;53294;47.912;13.526;2024-01-30T08:34:03;7.93;;;3.95;;
66478;SDS011;53294;47.912;13.526;2024-01-30T08:36:30;5.70;;;2.88;;
66478;SDS011;53294;47.912;13.526;2024-01-30T08:38:56;10.50;;;4.28;;
66478;SDS011;53294;47.912;13.526;2024-01-30T08:41:29;10.13;;;2.85;;
66478;SDS011;53294;47.912;13.526;2024-01-30T08:43:56;7.32;;;4.20;;
66478;SDS011;53294;47.912;13.526;2024-01-30T08:46:23;10.35;;;5.07;;
66478;SDS011;53294;47.912;13.526;2024-01-30T08:48:50;7.78;;;2.88;;
66478;SDS011;53294;47.912;13.526;2024-01-30T08:51:17;8.95;;;3.55;;
66478;SDS011;53294;47.912;13.526;2024-01-30T08:53:44;8.82;;;4.18;;
66478;SDS011;53294;47.912;13.526;2024-01-30T08:56:10;9.65;;;4.13;;
66478;SDS011;53294;47.912;13.526;2024-01-30T08:58:37;9.30;;;4.40;;
66478;SDS011;53294;47.912;13.526;2024-01-30T09:01:04;12.88;;;5.38;;
66478;SDS011;53294;47.912;13.526;2024-01-30T09:03:32;8.50;;;4.10;;
66478;SDS011;53294;47.912;13.526;2024-01-30T09:05:59;9.13;;;4.85;;
66478;SDS011;53294;47.912;13.526;2024-01-30T09:08:26;12.98;;;5.20;;
66478;SDS011;53294;47.912;13.526;2024-01-30T09:10:52;17.95;;;5.15;;
66478;SDS011;53294;47.912;13.526;2024-01-30T09:13:19;11.88;;;5.28;;
66478;SDS011;53294;47.912;13.526;2024-01-30T09:15:46;9.70;;;5.80;;
66478;SDS011;53294;47.912;13.526;2024-01-30T09:18:13;9.85;;;4.78;;
66478;SDS011;53294;47.912;13.526;2024-01-30T09:20:40;16.80;;;4.78;;
66478;SDS011;53294;47.912;13.526;2024-01-30T09:23:06;14.65;;;5.13;;
66478;SDS011;53294;47.912;13.526;2024-01-30T09:25:34;16.90;;;6.50;;
66478;SDS011;53294;47.912;13.526;2024-01-30T09:28:00;14.90;;;7.55;;
66478;SDS011;53294;47.912;13.526;2024-01-30T09:30:27;17.83;;;7.10;;
66478;SDS011;53294;47.912;13.526;2024-01-30T09:32:54;15.05;;;5.85;;
66478;SDS011;53294;47.912;13.526;2024-01-30T09:35:21;14.73;;;6.53;;
66478;SDS011;53294;47.912;13.526;2024-01-30T09:37:48;12.43;;;5.38;;
66478;SDS011;53294;47.912;13.526;2024-01-30T09:40:14;18.50;;;5.57;;
66478;SDS011;53294;47.912;13.526;2024-01-30T09:42:46;16.98;;;6.28;;
66478;SDS011;53294;47.912;13.526;2024-01-30T09:45:23;17.70;;;7.03;;
66478;SDS011;53294;47.912;13.526;2024-01-30T09:47:51;12.70;;;6.28;;
66478;SDS011;53294;47.912;13.526;2024-01-30T09:50:19;16.95;;;5.53;;
66478;SDS011;53294;47.912;13.526;2024-01-30T09:52:47;15.63;;;6.38;;
66478;SDS011;53294;47.912;13.526;2024-01-30T09:55:14;14.10;;;6.07;;
66478;SDS011;53294;47.912;13.526;2024-01-30T09:57:41;17.42;;;6.75;;
66478;SDS011;53294;47.912;13.526;2024-01-30T10:00:08;18.95;;;7.55;;
66478;SDS011;53294;47.912;13.526;2024-01-30T10:02:36;20.90;;;8.63;;
66478;SDS011;53294;47.912;13.526;2024-01-30T10:05:03;21.00;;;7.43;;
66478;SDS011;53294;47.912;13.526;2024-01-30T10:07:30;27.67;;;8.70;;
66478;SDS011;53294;47.912;13.526;2024-01-30T10:09:57;19.27;;;8.18;;
66478;SDS011;53294;47.912;13.526;2024-01-30T10:14:55;17.30;;;6.65;;
66478;SDS011;53294;47.912;13.526;2024-01-30T10:17:24;22.08;;;9.50;;
66478;SDS011;53294;47.912;13.526;2024-01-30T10:19:59;23.60;;;9.48;;
66478;SDS011;53294;47.912;13.526;2024-01-30T10:22:26;18.95;;;7.85;;
66478;SDS011;53294;47.912;13.526;2024-01-30T10:24:53;24.55;;;9.07;;
66478;SDS011;53294;47.912;13.526;2024-01-30T10:27:26;18.17;;;7.35;;
66478;SDS011;53294;47.912;13.526;2024-01-30T10:29:53;28.73;;;9.80;;
66478;SDS011;53294;47.912;13.526;2024-01-30T10:32:20;23.88;;;9.60;;
66478;SDS011;53294;47.912;13.526;2024-01-30T10:34:47;20.05;;;9.07;;
66478;SDS011;53294;47.912;13.526;2024-01-30T10:39:43;24.92;;;9.32;;
66478;SDS011;53294;47.912;13.526;2024-01-30T10:42:11;26.40;;;10.35;;
66478;SDS011;53294;47.912;13.526;2024-01-30T10:44:56;22.70;;;9.00;;
66478;SDS011;53294;47.912;13.526;2024-01-30T10:47:28;21.23;;;8.73;;
66478;SDS011;53294;47.912;13.526;2024-01-30T10:49:55;25.42;;;10.05;;
66478;SDS011;53294;47.912;13.526;2024-01-30T10:52:24;28.98;;;10.60;;
66478;SDS011;53294;47.912;13.526;2024-01-30T10:54:55;23.17;;;8.95;;
66478;SDS011;53294;47.912;13.526;2024-01-30T10:57:23;21.67;;;9.13;;
66478;SDS011;53294;47.912;13.526;2024-01-30T10:59:53;21.70;;;8.57;;
66478;SDS011;53294;47.912;13.526;2024-01-30T11:02:23;23.38;;;8.70;;
66478;SDS011;53294;47.912;13.526;2024-01-30T11:04:55;20.15;;;8.85;;
66478;SDS011;53294;47.912;13.526;2024-01-30T11:07:25;22.02;;;8.27;;
66478;SDS011;53294;47.912;13.526;2024-01-30T11:10:03;21.23;;;8.65;;
66478;SDS011;53294;47.912;13.526;2024-01-30T11:12:31;25.77;;;9.27;;
66478;SDS011;53294;47.912;13.526;2024-01-30T11:15:15;19.15;;;7.70;;
66478;SDS011;53294;47.912;13.526;2024-01-30T11:22:46;18.95;;;8.23;;
66478;SDS011;53294;47.912;13.526;2024-01-30T11:25:14;16.15;;;7.72;;
66478;SDS011;53294;47.912;13.526;2024-01-30T11:27:43;21.23;;;8.05;;
66478;SDS011;53294;47.912;13.526;2024-01-30T11:30:10;20.75;;;7.63;;
66478;SDS011;53294;47.912;13.526;2024-01-30T11:32:57;20.40;;;8.00;;
66478;SDS011;53294;47.912;13.526;2024-01-30T11:35:28;17.83;;;6.90;;
66478;SDS011;53294;47.912;13.526;2024-01-30T11:37:57;17.77;;;7.63;;
66478;SDS011;53294;47.912;13.526;2024-01-30T11:40:26;17.65;;;7.95;;
66478;SDS011;53294;47.912;13.526;2024-01-30T11:42:55;21.85;;;7.68;;
66478;SDS011;53294;47.912;13.526;2024-01-30T11:45:22;13.25;;;5.80;;
66478;SDS011;53294;47.912;13.526;2024-01-30T11:47:49;22.38;;;8.15;;
66478;SDS011;53294;47.912;13.526;2024-01-30T11:50:16;26.85;;;9.20;;
66478;SDS011;53294;47.912;13.526;2024-01-30T11:52:43;18.42;;;6.75;;
66478;SDS011;53294;47.912;13.526;2024-01-30T11:55:10;25.80;;;9.23;;
66478;SDS011;53294;47.912;13.526;2024-01-30T11:57:38;23.90;;;9.68;;
66478;SDS011;53294;47.912;13.526;2024-01-30T12:00:05;21.55;;;8.10;;
66478;SDS011;53294;47.912;13.526;2024-01-30T12:02:36;16.63;;;7.35;;
66478;SDS011;53294;47.912;13.526;2024-01-30T12:05:06;20.80;;;7.28;;
66478;SDS011;53294;47.912;13.526;2024-01-30T12:07:33;21.13;;;8.82;;
66478;SDS011;53294;47.912;13.526;2024-01-30T12:10:00;19.80;;;7.90;;
66478;SDS011;53294;47.912;13.526;2024-01-30T12:12:28;20.77;;;9.27;;
66478;SDS011;53294;47.912;13.526;2024-01-30T12:14:55;20.08;;;7.95;;
66478;SDS011;53294;47.912;13.526;2024-01-30T12:17:32;19.52;;;8.15;;
66478;SDS011;53294;47.912;13.526;2024-01-30T12:20:11;20.90;;;8.18;;
66478;SDS011;53294;47.912;13.526;2024-01-30T12:22:44;18.80;;;8.02;;
66478;SDS011;53294;47.912;13.526;2024-01-30T12:25:15;21.42;;;9.32;;
66478;SDS011;53294;47.912;13.526;2024-01-30T12:27:44;17.52;;;8.73;;
66478;SDS011;53294;47.912;13.526;2024-01-30T12:30:13;18.10;;;7.43;;
66478;SDS011;53294;47.912;13.526;2024-01-30T12:32:41;23.98;;;8.50;;
66478;SDS011;53294;47.912;13.526;2024-01-30T12:35:12;26.73;;;9.38;;
66478;SDS011;53294;47.912;13.526;2024-01-30T12:37:42;17.40;;;8.43;;
66478;SDS011;53294;47.912;13.526;2024-01-30T12:40:10;17.27;;;7.72;;
66478;SDS011;53294;47.912;13.526;2024-01-30T12:42:41;20.63;;;7.70;;
66478;SDS011;53294;47.912;13.526;2024-01-30T12:45:18;18.42;;;7.85;;
66478;SDS011;53294;47.912;13.526;2024-01-30T12:47:49;19.17;;;7.30;;
66478;SDS011;53294;47.912;13.526;2024-01-30T12:50:16;20.15;;;8.30;;
66478;SDS011;53294;47.912;13.526;2024-01-30T12:52:44;18.48;;;7.38;;
66478;SDS011;53294;47.912;13.526;2024-01-30T12:55:15;19.50;;;7.95;;
66478;SDS011;53294;47.912;13.526;2024-01-30T12:57:42;17.63;;;7.50;;
66478;SDS011;53294;47.912;13.526;2024-01-30T13:00:09;22.88;;;9.40;;
66478;SDS011;53294;47.912;13.526;2024-01-30T13:02:37;20.02;;;8.57;;
66478;SDS011;53294;47.912;13.526;2024-01-30T13:05:04;21.25;;;8.65;;
66478;SDS011;53294;47.912;13.526;2024-01-30T13:07:31;19.27;;;8.35;;
66478;SDS011;53294;47.912;13.526;2024-01-30T13:09:58;17.73;;;8.55;;
66478;SDS011;53294;47.912;13.526;2024-01-30T13:12:29;17.30;;;7.60;;
66478;SDS011;53294;47.912;13.526;2024-01-30T13:14:58;19.52;;;7.32;;
66478;SDS011;53294;47.912;13.526;2024-01-30T13:17:27;17.92;;;6.57;;
66478;SDS011;53294;47.912;13.526;2024-01-30T13:19:55;17.60;;;8.27;;
66478;SDS011;53294;47.912;13.526;2024-01-30T13:22:27;16.67;;;7.50;;
66478;SDS011;53294;47.912;13.526;2024-01-30T13:24:54;16.33;;;6.85;;
66478;SDS011;53294;47.912;13.526;2024-01-30T13:27:21;18.30;;;7.28;;
66478;SDS011;53294;47.912;13.526;2024-01-30T13:29:48;19.52;;;7.43;;
66478;SDS011;53294;47.912;13.526;2024-01-30T13:32:15;20.35;;;7.40;;
66478;SDS011;53294;47.912;13.526;2024-01-30T13:34:42;18.75;;;7.03;;
66478;SDS011;53294;47.912;13.526;2024-01-30T13:37:09;19.45;;;7.32;;
66478;SDS011;53294;47.912;13.526;2024-01-30T13:39:37;23.20;;;9.38;;
66478;SDS011;53294;47.912;13.526;2024-01-30T13:42:05;18.55;;;8.13;;
66478;SDS011;53294;47.912;13.526;2024-01-30T13:44:32;22.80;;;8.18;;
66478;SDS011;53294;47.912;13.526;2024-01-30T13:46:59;19.27;;;8.00;;
66478;SDS011;53294;47.912;13.526;2024-01-30T13:49:26;15.07;;;6.82;;
66478;SDS011;53294;47.912;13.526;2024-01-30T13:51:55;14.85;;;7.22;;
66478;SDS011;53294;47.912;13.526;2024-01-30T13:54:23;18.77;;;8.43;;
66478;SDS011;53294;47.912;13.526;2024-01-30T13:56:50;17.90;;;7.78;;
66478;SDS011;53294;47.912;13.526;2024-01-30T13:59:16;17.23;;;7.40;;
66478;SDS011;53294;47.912;13.526;2024-01-30T14:01:50;13.77;;;7.53;;
66478;SDS011;53294;47.912;13.526;2024-01-30T14:04:17;22.73;;;7.55;;
66478;SDS011;53294;47.912;13.526;2024-01-30T14:06:44;19.25;;;7.57;;
66478;SDS011;53294;47.912;13.526;2024-01-30T14:09:22;16.15;;;6.90;;
66478;SDS011;53294;47.912;13.526;2024-01-30T14:11:49;22.13;;;8.50;;
66478;SDS011;53294;47.912;13.526;2024-01-30T14:14:15;15.90;;;6.53;;
66478;SDS011;53294;47.912;13.526;2024-01-30T14:16:42;19.20;;;8.23;;
66478;SDS011;53294;47.912;13.526;2024-01-30T14:19:09;14.68;;;6.95;;
66478;SDS011;53294;47.912;13.526;2024-01-30T14:21:35;18.08;;;7.20;;
66478;SDS011;53294;47.912;13.526;2024-01-30T14:24:03;14.40;;;6.30;;
66478;SDS011;53294;47.912;13.526;2024-01-30T14:26:30;20.17;;;7.93;;
66478;SDS011;53294;47.912;13.526;2024-01-30T14:28:57;14.40;;;6.65;;
66478;SDS011;53294;47.912;13.526;2024-01-30T14:31:25;18.75;;;7.75;;
66478;SDS011;53294;47.912;13.526;2024-01-30T14:33:52;15.80;;;6.43;;
66478;SDS011;53294;47.912;13.526;2024-01-30T14:36:18;18.15;;;6.95;;
66478;SDS011;53294;47.912;13.526;2024-01-30T14:38:46;15.80;;;6.00;;
66478;SDS011;53294;47.912;13.526;2024-01-30T14:41:13;15.68;;;6.32;;
66478;SDS011;53294;47.912;13.526;2024-01-30T14:43:40;15.52;;;6.68;;
66478;SDS011;53294;47.912;13.526;2024-01-30T14:46:07;14.88;;;6.43;;